Briar Park, New York
Current Conditions -  °F | °C
As of 1:43 PM on Wednesday 26 Nov 2014 (Local Time) from KJFK Reporting Station
Moderate Snow Moderate Snow  
Wind Chill: 26°   Ceiling: 600
Heat Index: 36°   Visibility: 3mi
Dew Point: 34°   Wind: 15mph
Humidity: 93%   Direction: 10°N
Pressure: 29.93"   Gusts: NA
Location:  40.681°N, 73.5104°W
Report Text: KJFK 261843Z 01013KT 3SM RASN BR BKN006 OVC050 02/01 A2993 RMK AO2 SFC VIS 5 SNE13B43PLE43 P0007 $
Loading
Personal Weather Stations






























Interactive Weather Map New forecast layout! Learn more

10-Day Weather Forecast

Advertisements
Track Severe Weather on mobile